sensor_id;sensor_type;location;lat;lon;timestamp;P1;durP1;ratioP1;P2;durP2;ratioP2
20391;SDS011;10355;53.688;10.078;2023-11-18T00:00:10;4.65;;;2.22;;
20391;SDS011;10355;53.688;10.078;2023-11-18T00:02:54;3.47;;;2.38;;
20391;SDS011;10355;53.688;10.078;2023-11-18T00:05:37;3.65;;;2.55;;
20391;SDS011;10355;53.688;10.078;2023-11-18T00:08:20;3.10;;;2.03;;
20391;SDS011;10355;53.688;10.078;2023-11-18T00:11:04;3.65;;;2.47;;
20391;SDS011;10355;53.688;10.078;2023-11-18T00:13:48;3.17;;;2.20;;
20391;SDS011;10355;53.688;10.078;2023-11-18T00:16:31;3.40;;;2.25;;
20391;SDS011;10355;53.688;10.078;2023-11-18T00:19:14;3.90;;;2.20;;
20391;SDS011;10355;53.688;10.078;2023-11-18T00:21:57;2.33;;;1.90;;
20391;SDS011;10355;53.688;10.078;2023-11-18T00:24:39;4.47;;;2.20;;
20391;SDS011;10355;53.688;10.078;2023-11-18T00:27:24;3.63;;;2.30;;
20391;SDS011;10355;53.688;10.078;2023-11-18T00:30:07;3.22;;;2.25;;
20391;SDS011;10355;53.688;10.078;2023-11-18T00:32:52;3.80;;;2.35;;
20391;SDS011;10355;53.688;10.078;2023-11-18T00:35:35;4.47;;;2.45;;
20391;SDS011;10355;53.688;10.078;2023-11-18T00:38:21;3.28;;;1.98;;
20391;SDS011;10355;53.688;10.078;2023-11-18T00:41:05;3.20;;;2.28;;
20391;SDS011;10355;53.688;10.078;2023-11-18T00:43:50;3.60;;;2.13;;
20391;SDS011;10355;53.688;10.078;2023-11-18T00:46:35;3.35;;;2.10;;
20391;SDS011;10355;53.688;10.078;2023-11-18T00:49:18;3.67;;;1.92;;
20391;SDS011;10355;53.688;10.078;2023-11-18T00:52:01;3.70;;;2.03;;
20391;SDS011;10355;53.688;10.078;2023-11-18T00:54:45;2.63;;;1.60;;
20391;SDS011;10355;53.688;10.078;2023-11-18T00:57:27;3.47;;;2.10;;
20391;SDS011;10355;53.688;10.078;2023-11-18T01:00:12;2.58;;;2.00;;
20391;SDS011;10355;53.688;10.078;2023-11-18T01:02:58;4.78;;;2.08;;
20391;SDS011;10355;53.688;10.078;2023-11-18T01:05:41;3.70;;;2.00;;
20391;SDS011;10355;53.688;10.078;2023-11-18T01:08:23;3.47;;;2.45;;
20391;SDS011;10355;53.688;10.078;2023-11-18T01:11:06;4.43;;;2.28;;
20391;SDS011;10355;53.688;10.078;2023-11-18T01:13:50;4.07;;;2.42;;
20391;SDS011;10355;53.688;10.078;2023-11-18T01:16:37;3.33;;;1.98;;
20391;SDS011;10355;53.688;10.078;2023-11-18T01:19:20;3.88;;;2.50;;
20391;SDS011;10355;53.688;10.078;2023-11-18T01:22:03;3.92;;;2.47;;
20391;SDS011;10355;53.688;10.078;2023-11-18T01:24:47;5.72;;;2.08;;
20391;SDS011;10355;53.688;10.078;2023-11-18T01:27:32;3.15;;;2.30;;
20391;SDS011;10355;53.688;10.078;2023-11-18T01:30:15;3.15;;;2.30;;
20391;SDS011;10355;53.688;10.078;2023-11-18T01:32:59;3.60;;;2.45;;
20391;SDS011;10355;53.688;10.078;2023-11-18T01:35:44;5.60;;;1.75;;
20391;SDS011;10355;53.688;10.078;2023-11-18T01:38:26;5.50;;;1.98;;
20391;SDS011;10355;53.688;10.078;2023-11-18T01:41:09;3.00;;;1.90;;
20391;SDS011;10355;53.688;10.078;2023-11-18T01:43:52;2.78;;;2.00;;
20391;SDS011;10355;53.688;10.078;2023-11-18T01:46:35;2.58;;;2.15;;
20391;SDS011;10355;53.688;10.078;2023-11-18T01:49:20;3.05;;;1.83;;
20391;SDS011;10355;53.688;10.078;2023-11-18T01:52:03;2.88;;;2.10;;
20391;SDS011;10355;53.688;10.078;2023-11-18T01:54:45;3.10;;;2.25;;
20391;SDS011;10355;53.688;10.078;2023-11-18T01:57:30;2.97;;;2.03;;
20391;SDS011;10355;53.688;10.078;2023-11-18T02:00:14;3.63;;;2.28;;
20391;SDS011;10355;53.688;10.078;2023-11-18T02:02:59;5.07;;;2.00;;
20391;SDS011;10355;53.688;10.078;2023-11-18T02:05:44;4.57;;;2.08;;
20391;SDS011;10355;53.688;10.078;2023-11-18T02:08:26;3.42;;;1.98;;
20391;SDS011;10355;53.688;10.078;2023-11-18T02:11:13;3.67;;;2.08;;
20391;SDS011;10355;53.688;10.078;2023-11-18T02:13:56;2.38;;;1.83;;
20391;SDS011;10355;53.688;10.078;2023-11-18T02:16:40;3.05;;;2.10;;
20391;SDS011;10355;53.688;10.078;2023-11-18T02:19:25;3.65;;;2.35;;
20391;SDS011;10355;53.688;10.078;2023-11-18T02:22:10;4.78;;;2.50;;
20391;SDS011;10355;53.688;10.078;2023-11-18T02:24:54;2.95;;;2.10;;
20391;SDS011;10355;53.688;10.078;2023-11-18T02:27:38;4.10;;;2.15;;
20391;SDS011;10355;53.688;10.078;2023-11-18T02:30:21;5.22;;;2.30;;
20391;SDS011;10355;53.688;10.078;2023-11-18T02:33:07;3.83;;;1.77;;
20391;SDS011;10355;53.688;10.078;2023-11-18T02:35:55;3.70;;;2.08;;
20391;SDS011;10355;53.688;10.078;2023-11-18T02:38:43;5.22;;;2.30;;
20391;SDS011;10355;53.688;10.078;2023-11-18T02:41:27;3.72;;;2.15;;
20391;SDS011;10355;53.688;10.078;2023-11-18T02:44:12;3.15;;;2.00;;
20391;SDS011;10355;53.688;10.078;2023-11-18T02:46:59;2.90;;;1.90;;
20391;SDS011;10355;53.688;10.078;2023-11-18T02:49:42;3.13;;;2.15;;
20391;SDS011;10355;53.688;10.078;2023-11-18T02:52:25;7.22;;;2.05;;
20391;SDS011;10355;53.688;10.078;2023-11-18T02:55:08;3.35;;;1.95;;
20391;SDS011;10355;53.688;10.078;2023-11-18T02:57:50;4.18;;;1.90;;
20391;SDS011;10355;53.688;10.078;2023-11-18T03:00:35;3.45;;;2.20;;
20391;SDS011;10355;53.688;10.078;2023-11-18T03:03:19;3.22;;;2.10;;
20391;SDS011;10355;53.688;10.078;2023-11-18T03:06:03;3.92;;;2.53;;
20391;SDS011;10355;53.688;10.078;2023-11-18T03:08:47;3.92;;;2.70;;
20391;SDS011;10355;53.688;10.078;2023-11-18T03:11:30;3.90;;;2.67;;
20391;SDS011;10355;53.688;10.078;2023-11-18T03:14:14;2.97;;;2.30;;
20391;SDS011;10355;53.688;10.078;2023-11-18T03:16:58;5.60;;;3.08;;
20391;SDS011;10355;53.688;10.078;2023-11-18T03:19:41;5.05;;;2.80;;
20391;SDS011;10355;53.688;10.078;2023-11-18T03:22:25;5.22;;;3.03;;
20391;SDS011;10355;53.688;10.078;2023-11-18T03:25:08;5.22;;;2.90;;
20391;SDS011;10355;53.688;10.078;2023-11-18T03:27:51;5.93;;;3.15;;
20391;SDS011;10355;53.688;10.078;2023-11-18T03:30:36;4.93;;;3.08;;
20391;SDS011;10355;53.688;10.078;2023-11-18T03:33:20;4.13;;;2.92;;
20391;SDS011;10355;53.688;10.078;2023-11-18T03:36:05;4.95;;;2.90;;
20391;SDS011;10355;53.688;10.078;2023-11-18T03:38:48;4.13;;;2.85;;
20391;SDS011;10355;53.688;10.078;2023-11-18T03:41:31;5.00;;;2.85;;
20391;SDS011;10355;53.688;10.078;2023-11-18T03:44:13;4.80;;;2.75;;
20391;SDS011;10355;53.688;10.078;2023-11-18T03:46:56;4.78;;;2.58;;
20391;SDS011;10355;53.688;10.078;2023-11-18T03:49:40;5.05;;;3.08;;
20391;SDS011;10355;53.688;10.078;2023-11-18T03:52:23;3.90;;;2.75;;
20391;SDS011;10355;53.688;10.078;2023-11-18T03:55:07;5.82;;;2.83;;
20391;SDS011;10355;53.688;10.078;2023-11-18T03:57:50;4.47;;;2.85;;
20391;SDS011;10355;53.688;10.078;2023-11-18T04:00:33;5.75;;;2.80;;
20391;SDS011;10355;53.688;10.078;2023-11-18T04:03:15;5.25;;;3.10;;
20391;SDS011;10355;53.688;10.078;2023-11-18T04:06:00;6.43;;;3.20;;
20391;SDS011;10355;53.688;10.078;2023-11-18T04:08:43;6.10;;;3.42;;
20391;SDS011;10355;53.688;10.078;2023-11-18T04:11:26;4.40;;;3.15;;
20391;SDS011;10355;53.688;10.078;2023-11-18T04:14:09;3.90;;;2.88;;
20391;SDS011;10355;53.688;10.078;2023-11-18T04:16:52;5.55;;;3.25;;
20391;SDS011;10355;53.688;10.078;2023-11-18T04:19:36;6.18;;;3.25;;
20391;SDS011;10355;53.688;10.078;2023-11-18T04:22:22;4.93;;;2.90;;
20391;SDS011;10355;53.688;10.078;2023-11-18T04:25:05;5.30;;;3.38;;
20391;SDS011;10355;53.688;10.078;2023-11-18T04:27:47;5.75;;;3.50;;
20391;SDS011;10355;53.688;10.078;2023-11-18T04:30:32;5.05;;;3.30;;
20391;SDS011;10355;53.688;10.078;2023-11-18T04:33:15;4.85;;;3.00;;
20391;SDS011;10355;53.688;10.078;2023-11-18T04:35:58;4.82;;;3.20;;
20391;SDS011;10355;53.688;10.078;2023-11-18T04:38:42;5.85;;;3.45;;
20391;SDS011;10355;53.688;10.078;2023-11-18T04:41:25;4.70;;;3.10;;
20391;SDS011;10355;53.688;10.078;2023-11-18T04:44:08;4.72;;;2.85;;
20391;SDS011;10355;53.688;10.078;2023-11-18T04:46:51;4.93;;;3.10;;
20391;SDS011;10355;53.688;10.078;2023-11-18T04:49:34;5.00;;;3.17;;
20391;SDS011;10355;53.688;10.078;2023-11-18T04:52:16;4.38;;;3.13;;
20391;SDS011;10355;53.688;10.078;2023-11-18T04:55:01;5.32;;;3.38;;
20391;SDS011;10355;53.688;10.078;2023-11-18T04:57:43;5.90;;;3.38;;
20391;SDS011;10355;53.688;10.078;2023-11-18T05:00:26;5.32;;;3.20;;
20391;SDS011;10355;53.688;10.078;2023-11-18T05:03:09;4.90;;;2.97;;
20391;SDS011;10355;53.688;10.078;2023-11-18T05:05:52;6.30;;;3.50;;
20391;SDS011;10355;53.688;10.078;2023-11-18T05:08:38;5.53;;;3.05;;
20391;SDS011;10355;53.688;10.078;2023-11-18T05:11:23;4.95;;;3.33;;
20391;SDS011;10355;53.688;10.078;2023-11-18T05:14:05;6.93;;;2.95;;
20391;SDS011;10355;53.688;10.078;2023-11-18T05:16:48;5.53;;;3.17;;
20391;SDS011;10355;53.688;10.078;2023-11-18T05:19:31;4.85;;;2.92;;
20391;SDS011;10355;53.688;10.078;2023-11-18T05:22:14;5.13;;;3.53;;
20391;SDS011;10355;53.688;10.078;2023-11-18T05:24:57;5.63;;;3.47;;
20391;SDS011;10355;53.688;10.078;2023-11-18T05:27:41;4.95;;;3.25;;
20391;SDS011;10355;53.688;10.078;2023-11-18T05:30:24;4.07;;;3.25;;
20391;SDS011;10355;53.688;10.078;2023-11-18T05:33:07;5.78;;;3.40;;
20391;SDS011;10355;53.688;10.078;2023-11-18T05:35:52;4.38;;;3.00;;
20391;SDS011;10355;53.688;10.078;2023-11-18T05:38:35;4.60;;;3.28;;
20391;SDS011;10355;53.688;10.078;2023-11-18T05:41:18;4.95;;;3.30;;
20391;SDS011;10355;53.688;10.078;2023-11-18T05:44:10;7.05;;;3.08;;
20391;SDS011;10355;53.688;10.078;2023-11-18T05:46:59;5.43;;;3.28;;
20391;SDS011;10355;53.688;10.078;2023-11-18T05:49:43;7.25;;;3.53;;
20391;SDS011;10355;53.688;10.078;2023-11-18T05:52:26;5.88;;;3.83;;
20391;SDS011;10355;53.688;10.078;2023-11-18T05:55:08;5.22;;;3.42;;
20391;SDS011;10355;53.688;10.078;2023-11-18T05:57:52;6.15;;;3.58;;
20391;SDS011;10355;53.688;10.078;2023-11-18T06:00:36;5.47;;;3.63;;
20391;SDS011;10355;53.688;10.078;2023-11-18T06:03:22;6.20;;;3.60;;
20391;SDS011;10355;53.688;10.078;2023-11-18T06:06:06;4.55;;;3.22;;
20391;SDS011;10355;53.688;10.078;2023-11-18T06:08:49;4.85;;;3.28;;
20391;SDS011;10355;53.688;10.078;2023-11-18T06:11:32;4.43;;;3.25;;
20391;SDS011;10355;53.688;10.078;2023-11-18T06:14:15;5.18;;;3.55;;
20391;SDS011;10355;53.688;10.078;2023-11-18T06:17:00;4.95;;;3.38;;
20391;SDS011;10355;53.688;10.078;2023-11-18T06:19:43;4.55;;;3.05;;
20391;SDS011;10355;53.688;10.078;2023-11-18T06:22:27;5.38;;;3.60;;
20391;SDS011;10355;53.688;10.078;2023-11-18T06:25:09;5.38;;;3.25;;
20391;SDS011;10355;53.688;10.078;2023-11-18T06:27:54;5.20;;;3.08;;
20391;SDS011;10355;53.688;10.078;2023-11-18T06:30:37;5.07;;;3.45;;
20391;SDS011;10355;53.688;10.078;2023-11-18T06:33:21;5.88;;;3.35;;
20391;SDS011;10355;53.688;10.078;2023-11-18T06:36:05;7.03;;;3.47;;
20391;SDS011;10355;53.688;10.078;2023-11-18T06:38:49;6.75;;;3.45;;
20391;SDS011;10355;53.688;10.078;2023-11-18T06:41:32;5.53;;;3.55;;
20391;SDS011;10355;53.688;10.078;2023-11-18T06:44:16;6.05;;;3.50;;
20391;SDS011;10355;53.688;10.078;2023-11-18T06:47:05;6.72;;;4.05;;
20391;SDS011;10355;53.688;10.078;2023-11-18T06:49:49;5.30;;;3.33;;
20391;SDS011;10355;53.688;10.078;2023-11-18T06:52:36;6.65;;;3.50;;
20391;SDS011;10355;53.688;10.078;2023-11-18T06:55:19;5.47;;;3.47;;
20391;SDS011;10355;53.688;10.078;2023-11-18T06:58:02;5.45;;;3.90;;
20391;SDS011;10355;53.688;10.078;2023-11-18T07:00:45;6.70;;;3.55;;
20391;SDS011;10355;53.688;10.078;2023-11-18T07:03:29;5.40;;;3.63;;
20391;SDS011;10355;53.688;10.078;2023-11-18T07:06:16;6.03;;;3.70;;
20391;SDS011;10355;53.688;10.078;2023-11-18T07:09:03;5.28;;;3.50;;
20391;SDS011;10355;53.688;10.078;2023-11-18T07:11:53;5.30;;;3.33;;
20391;SDS011;10355;53.688;10.078;2023-11-18T07:14:37;5.75;;;3.70;;
20391;SDS011;10355;53.688;10.078;2023-11-18T07:17:20;6.15;;;3.30;;
20391;SDS011;10355;53.688;10.078;2023-11-18T07:20:03;7.25;;;3.78;;
20391;SDS011;10355;53.688;10.078;2023-11-18T07:22:48;6.32;;;3.45;;
20391;SDS011;10355;53.688;10.078;2023-11-18T07:25:34;5.75;;;3.55;;
20391;SDS011;10355;53.688;10.078;2023-11-18T07:28:17;5.05;;;2.85;;
20391;SDS011;10355;53.688;10.078;2023-11-18T07:30:59;4.88;;;3.10;;
20391;SDS011;10355;53.688;10.078;2023-11-18T07:33:46;9.40;;;3.50;;
20391;SDS011;10355;53.688;10.078;2023-11-18T07:36:30;5.30;;;3.22;;
20391;SDS011;10355;53.688;10.078;2023-11-18T07:39:15;6.47;;;3.60;;
20391;SDS011;10355;53.688;10.078;2023-11-18T07:42:01;5.38;;;3.42;;
20391;SDS011;10355;53.688;10.078;2023-11-18T07:44:48;5.55;;;3.45;;
20391;SDS011;10355;53.688;10.078;2023-11-18T07:47:31;5.40;;;3.38;;
20391;SDS011;10355;53.688;10.078;2023-11-18T07:50:15;5.80;;;3.70;;
20391;SDS011;10355;53.688;10.078;2023-11-18T07:52:58;6.18;;;3.78;;
20391;SDS011;10355;53.688;10.078;2023-11-18T07:55:42;6.78;;;3.85;;
20391;SDS011;10355;53.688;10.078;2023-11-18T07:58:26;5.55;;;2.92;;
20391;SDS011;10355;53.688;10.078;2023-11-18T08:01:09;7.60;;;4.25;;
20391;SDS011;10355;53.688;10.078;2023-11-18T08:03:52;6.53;;;3.90;;
20391;SDS011;10355;53.688;10.078;2023-11-18T08:06:36;5.78;;;3.67;;
20391;SDS011;10355;53.688;10.078;2023-11-18T08:09:18;7.05;;;4.18;;
20391;SDS011;10355;53.688;10.078;2023-11-18T08:12:06;6.57;;;4.03;;
20391;SDS011;10355;53.688;10.078;2023-11-18T08:14:50;7.72;;;4.05;;
20391;SDS011;10355;53.688;10.078;2023-11-18T08:17:34;7.22;;;4.15;;
20391;SDS011;10355;53.688;10.078;2023-11-18T08:20:17;5.43;;;3.42;;
20391;SDS011;10355;53.688;10.078;2023-11-18T08:22:59;6.07;;;4.28;;
20391;SDS011;10355;53.688;10.078;2023-11-18T08:25:42;9.35;;;4.75;;
20391;SDS011;10355;53.688;10.078;2023-11-18T08:28:27;6.53;;;4.00;;
20391;SDS011;10355;53.688;10.078;2023-11-18T08:31:09;7.53;;;4.07;;
20391;SDS011;10355;53.688;10.078;2023-11-18T08:33:57;7.28;;;3.95;;
20391;SDS011;10355;53.688;10.078;2023-11-18T08:36:40;6.55;;;4.10;;
20391;SDS011;10355;53.688;10.078;2023-11-18T08:39:25;8.65;;;4.53;;
20391;SDS011;10355;53.688;10.078;2023-11-18T08:42:10;7.10;;;4.15;;
20391;SDS011;10355;53.688;10.078;2023-11-18T08:44:55;8.20;;;4.75;;
20391;SDS011;10355;53.688;10.078;2023-11-18T08:47:38;8.95;;;5.03;;
20391;SDS011;10355;53.688;10.078;2023-11-18T08:50:21;10.15;;;5.70;;
20391;SDS011;10355;53.688;10.078;2023-11-18T08:53:05;8.75;;;5.13;;
20391;SDS011;10355;53.688;10.078;2023-11-18T08:55:52;9.75;;;5.30;;
20391;SDS011;10355;53.688;10.078;2023-11-18T08:58:36;8.93;;;5.15;;
20391;SDS011;10355;53.688;10.078;2023-11-18T09:01:22;6.88;;;4.10;;
20391;SDS011;10355;53.688;10.078;2023-11-18T09:04:09;9.65;;;5.07;;
20391;SDS011;10355;53.688;10.078;2023-11-18T09:06:52;7.97;;;4.60;;
20391;SDS011;10355;53.688;10.078;2023-11-18T09:09:35;7.88;;;4.68;;
20391;SDS011;10355;53.688;10.078;2023-11-18T09:12:18;6.97;;;4.00;;
20391;SDS011;10355;53.688;10.078;2023-11-18T09:15:01;6.53;;;3.45;;
20391;SDS011;10355;53.688;10.078;2023-11-18T09:17:46;9.27;;;4.07;;
20391;SDS011;10355;53.688;10.078;2023-11-18T09:20:30;5.07;;;3.30;;
20391;SDS011;10355;53.688;10.078;2023-11-18T09:23:13;5.15;;;3.30;;
20391;SDS011;10355;53.688;10.078;2023-11-18T09:25:57;5.80;;;3.20;;
20391;SDS011;10355;53.688;10.078;2023-11-18T09:28:40;4.88;;;3.08;;
20391;SDS011;10355;53.688;10.078;2023-11-18T09:31:23;4.35;;;2.78;;
20391;SDS011;10355;53.688;10.078;2023-11-18T09:34:08;4.28;;;2.33;;
20391;SDS011;10355;53.688;10.078;2023-11-18T09:36:57;4.75;;;2.50;;
20391;SDS011;10355;53.688;10.078;2023-11-18T09:39:40;4.80;;;2.95;;
20391;SDS011;10355;53.688;10.078;2023-11-18T09:42:27;6.47;;;2.40;;
20391;SDS011;10355;53.688;10.078;2023-11-18T09:45:11;3.67;;;2.30;;
20391;SDS011;10355;53.688;10.078;2023-11-18T09:47:55;3.38;;;2.22;;
20391;SDS011;10355;53.688;10.078;2023-11-18T09:50:44;3.15;;;1.90;;
20391;SDS011;10355;53.688;10.078;2023-11-18T09:53:28;3.30;;;1.92;;
20391;SDS011;10355;53.688;10.078;2023-11-18T09:56:15;4.22;;;2.40;;
20391;SDS011;10355;53.688;10.078;2023-11-18T09:59:10;3.75;;;1.90;;
20391;SDS011;10355;53.688;10.078;2023-11-18T10:01:58;1.95;;;1.60;;
20391;SDS011;10355;53.688;10.078;2023-11-18T10:04:41;3.72;;;1.77;;
20391;SDS011;10355;53.688;10.078;2023-11-18T10:07:29;2.25;;;1.70;;
20391;SDS011;10355;53.688;10.078;2023-11-18T10:10:14;2.38;;;1.73;;
20391;SDS011;10355;53.688;10.078;2023-11-18T10:12:57;3.20;;;1.50;;
20391;SDS011;10355;53.688;10.078;2023-11-18T10:15:40;2.47;;;1.45;;
20391;SDS011;10355;53.688;10.078;2023-11-18T10:18:23;2.30;;;1.50;;
20391;SDS011;10355;53.688;10.078;2023-11-18T10:21:07;2.10;;;1.40;;
20391;SDS011;10355;53.688;10.078;2023-11-18T10:24:00;1.85;;;1.30;;
20391;SDS011;10355;53.688;10.078;2023-11-18T10:26:43;3.05;;;1.75;;
20391;SDS011;10355;53.688;10.078;2023-11-18T10:29:26;4.03;;;1.60;;
20391;SDS011;10355;53.688;10.078;2023-11-18T10:32:10;2.38;;;1.52;;
20391;SDS011;10355;53.688;10.078;2023-11-18T10:34:57;2.60;;;1.45;;
20391;SDS011;10355;53.688;10.078;2023-11-18T10:37:40;2.97;;;1.60;;
20391;SDS011;10355;53.688;10.078;2023-11-18T10:40:26;2.70;;;1.50;;
20391;SDS011;10355;53.688;10.078;2023-11-18T10:43:10;1.58;;;1.20;;
20391;SDS011;10355;53.688;10.078;2023-11-18T10:45:52;2.58;;;1.40;;
20391;SDS011;10355;53.688;10.078;2023-11-18T10:48:46;2.20;;;1.20;;
20391;SDS011;10355;53.688;10.078;2023-11-18T10:51:30;1.33;;;1.05;;
20391;SDS011;10355;53.688;10.078;2023-11-18T10:54:14;2.25;;;1.42;;
20391;SDS011;10355;53.688;10.078;2023-11-18T10:57:00;2.50;;;1.40;;
20391;SDS011;10355;53.688;10.078;2023-11-18T10:59:58;1.73;;;1.30;;
20391;SDS011;10355;53.688;10.078;2023-11-18T11:02:41;1.85;;;1.33;;
20391;SDS011;10355;53.688;10.078;2023-11-18T11:05:27;2.03;;;1.50;;
20391;SDS011;10355;53.688;10.078;2023-11-18T11:08:14;3.08;;;1.35;;
20391;SDS011;10355;53.688;10.078;2023-11-18T11:11:13;1.70;;;1.25;;
20391;SDS011;10355;53.688;10.078;2023-11-18T11:14:00;2.00;;;1.27;;
20391;SDS011;10355;53.688;10.078;2023-11-18T11:16:44;1.95;;;1.40;;
20391;SDS011;10355;53.688;10.078;2023-11-18T11:19:33;3.03;;;1.58;;
20391;SDS011;10355;53.688;10.078;2023-11-18T11:22:28;2.10;;;1.33;;
20391;SDS011;10355;53.688;10.078;2023-11-18T11:25:19;2.70;;;1.30;;
20391;SDS011;10355;53.688;10.078;2023-11-18T11:28:07;2.30;;;1.45;;
20391;SDS011;10355;53.688;10.078;2023-11-18T11:30:55;2.15;;;1.42;;
20391;SDS011;10355;53.688;10.078;2023-11-18T11:33:39;1.85;;;1.30;;
20391;SDS011;10355;53.688;10.078;2023-11-18T11:36:23;1.95;;;1.08;;
20391;SDS011;10355;53.688;10.078;2023-11-18T11:39:08;2.08;;;1.40;;
20391;SDS011;10355;53.688;10.078;2023-11-18T11:42:00;2.28;;;1.30;;
20391;SDS011;10355;53.688;10.078;2023-11-18T11:44:44;1.85;;;1.30;;
20391;SDS011;10355;53.688;10.078;2023-11-18T11:47:29;1.70;;;1.20;;
20391;SDS011;10355;53.688;10.078;2023-11-18T11:50:19;2.15;;;1.20;;
20391;SDS011;10355;53.688;10.078;2023-11-18T11:53:12;2.40;;;1.30;;
20391;SDS011;10355;53.688;10.078;2023-11-18T11:55:58;2.80;;;1.33;;
20391;SDS011;10355;53.688;10.078;2023-11-18T11:58:48;2.13;;;1.17;;
20391;SDS011;10355;53.688;10.078;2023-11-18T12:01:35;2.05;;;1.20;;
20391;SDS011;10355;53.688;10.078;2023-11-18T12:04:21;2.08;;;1.20;;
20391;SDS011;10355;53.688;10.078;2023-11-18T12:07:10;1.98;;;1.20;;
20391;SDS011;10355;53.688;10.078;2023-11-18T12:10:01;1.40;;;0.90;;
20391;SDS011;10355;53.688;10.078;2023-11-18T12:12:48;2.00;;;1.30;;
20391;SDS011;10355;53.688;10.078;2023-11-18T12:22:06;1.45;;;1.00;;
20391;SDS011;10355;53.688;10.078;2023-11-18T12:27:56;2.45;;;1.00;;
20391;SDS011;10355;53.688;10.078;2023-11-18T12:30:41;1.33;;;0.88;;
20391;SDS011;10355;53.688;10.078;2023-11-18T12:33:59;1.05;;;0.75;;
20391;SDS011;10355;53.688;10.078;2023-11-18T12:36:58;1.08;;;0.98;;
20391;SDS011;10355;53.688;10.078;2023-11-18T12:40:09;1.27;;;0.80;;
20391;SDS011;10355;53.688;10.078;2023-11-18T12:43:00;1.55;;;1.10;;
20391;SDS011;10355;53.688;10.078;2023-11-18T12:46:11;1.63;;;1.13;;
20391;SDS011;10355;53.688;10.078;2023-11-18T12:48:59;1.88;;;1.30;;
20391;SDS011;10355;53.688;10.078;2023-11-18T12:51:43;2.05;;;1.10;;
20391;SDS011;10355;53.688;10.078;2023-11-18T12:54:27;1.88;;;1.40;;
20391;SDS011;10355;53.688;10.078;2023-11-18T12:57:11;1.80;;;1.60;;
20391;SDS011;10355;53.688;10.078;2023-11-18T12:59:55;2.58;;;1.70;;
20391;SDS011;10355;53.688;10.078;2023-11-18T13:02:38;2.38;;;1.65;;
20391;SDS011;10355;53.688;10.078;2023-11-18T13:05:22;2.35;;;1.65;;
20391;SDS011;10355;53.688;10.078;2023-11-18T13:08:05;2.42;;;1.80;;
20391;SDS011;10355;53.688;10.078;2023-11-18T13:10:48;2.90;;;1.60;;
20391;SDS011;10355;53.688;10.078;2023-11-18T13:13:34;3.05;;;1.60;;
20391;SDS011;10355;53.688;10.078;2023-11-18T13:16:17;2.42;;;1.55;;
20391;SDS011;10355;53.688;10.078;2023-11-18T13:19:00;2.15;;;1.48;;
20391;SDS011;10355;53.688;10.078;2023-11-18T13:21:45;2.00;;;1.50;;
20391;SDS011;10355;53.688;10.078;2023-11-18T13:24:28;2.45;;;1.40;;
20391;SDS011;10355;53.688;10.078;2023-11-18T13:27:12;2.40;;;1.58;;
20391;SDS011;10355;53.688;10.078;2023-11-18T13:29:59;2.97;;;1.65;;
20391;SDS011;10355;53.688;10.078;2023-11-18T13:32:42;1.85;;;1.40;;
20391;SDS011;10355;53.688;10.078;2023-11-18T13:35:25;1.80;;;1.40;;
20391;SDS011;10355;53.688;10.078;2023-11-18T13:38:09;2.67;;;1.77;;
20391;SDS011;10355;53.688;10.078;2023-11-18T13:40:52;2.53;;;1.65;;
20391;SDS011;10355;53.688;10.078;2023-11-18T13:43:41;3.85;;;1.80;;
20391;SDS011;10355;53.688;10.078;2023-11-18T13:46:25;1.95;;;1.65;;
20391;SDS011;10355;53.688;10.078;2023-11-18T13:49:09;4.35;;;1.70;;
20391;SDS011;10355;53.688;10.078;2023-11-18T13:51:52;2.38;;;1.50;;
20391;SDS011;10355;53.688;10.078;2023-11-18T13:54:35;2.25;;;1.58;;
20391;SDS011;10355;53.688;10.078;2023-11-18T13:57:18;1.98;;;1.40;;
20391;SDS011;10355;53.688;10.078;2023-11-18T14:00:04;2.42;;;1.60;;
20391;SDS011;10355;53.688;10.078;2023-11-18T14:02:50;3.22;;;1.70;;
20391;SDS011;10355;53.688;10.078;2023-11-18T14:05:33;2.70;;;1.50;;
20391;SDS011;10355;53.688;10.078;2023-11-18T14:08:17;2.40;;;1.45;;
20391;SDS011;10355;53.688;10.078;2023-11-18T14:11:01;2.50;;;1.67;;
20391;SDS011;10355;53.688;10.078;2023-11-18T14:13:53;3.53;;;1.90;;
20391;SDS011;10355;53.688;10.078;2023-11-18T14:16:36;2.40;;;1.50;;
20391;SDS011;10355;53.688;10.078;2023-11-18T14:19:23;3.38;;;1.75;;
20391;SDS011;10355;53.688;10.078;2023-11-18T14:22:06;2.33;;;1.50;;
20391;SDS011;10355;53.688;10.078;2023-11-18T14:24:49;2.65;;;1.90;;
20391;SDS011;10355;53.688;10.078;2023-11-18T14:27:31;2.45;;;1.80;;
20391;SDS011;10355;53.688;10.078;2023-11-18T14:30:14;3.50;;;1.65;;
20391;SDS011;10355;53.688;10.078;2023-11-18T14:32:57;2.40;;;1.55;;
20391;SDS011;10355;53.688;10.078;2023-11-18T14:35:42;2.92;;;1.75;;
20391;SDS011;10355;53.688;10.078;2023-11-18T14:38:26;3.25;;;1.80;;
20391;SDS011;10355;53.688;10.078;2023-11-18T14:41:09;2.13;;;1.50;;
20391;SDS011;10355;53.688;10.078;2023-11-18T14:43:53;2.58;;;1.80;;
20391;SDS011;10355;53.688;10.078;2023-11-18T14:46:37;3.53;;;1.90;;
20391;SDS011;10355;53.688;10.078;2023-11-18T14:49:22;2.17;;;1.50;;
20391;SDS011;10355;53.688;10.078;2023-11-18T14:52:07;2.55;;;1.50;;
20391;SDS011;10355;53.688;10.078;2023-11-18T14:54:49;2.40;;;1.65;;
20391;SDS011;10355;53.688;10.078;2023-11-18T14:57:32;2.22;;;1.40;;
20391;SDS011;10355;53.688;10.078;2023-11-18T15:00:15;2.70;;;1.42;;
20391;SDS011;10355;53.688;10.078;2023-11-18T15:03:03;1.70;;;1.25;;
20391;SDS011;10355;53.688;10.078;2023-11-18T15:05:48;4.82;;;1.40;;
20391;SDS011;10355;53.688;10.078;2023-11-18T15:08:32;1.73;;;1.23;;
20391;SDS011;10355;53.688;10.078;2023-11-18T15:11:22;2.53;;;1.45;;
20391;SDS011;10355;53.688;10.078;2023-11-18T15:14:05;2.95;;;1.60;;
20391;SDS011;10355;53.688;10.078;2023-11-18T15:16:49;2.60;;;1.83;;
20391;SDS011;10355;53.688;10.078;2023-11-18T15:19:32;2.90;;;1.88;;
20391;SDS011;10355;53.688;10.078;2023-11-18T15:22:15;1.98;;;1.33;;
20391;SDS011;10355;53.688;10.078;2023-11-18T15:24:59;3.03;;;1.88;;
20391;SDS011;10355;53.688;10.078;2023-11-18T15:27:43;3.17;;;1.70;;
20391;SDS011;10355;53.688;10.078;2023-11-18T15:30:27;2.88;;;1.60;;
20391;SDS011;10355;53.688;10.078;2023-11-18T15:33:10;3.67;;;2.10;;
20391;SDS011;10355;53.688;10.078;2023-11-18T15:35:55;2.88;;;1.70;;
20391;SDS011;10355;53.688;10.078;2023-11-18T15:38:37;2.75;;;2.00;;
20391;SDS011;10355;53.688;10.078;2023-11-18T15:41:22;2.83;;;1.90;;
20391;SDS011;10355;53.688;10.078;2023-11-18T15:44:05;3.65;;;2.35;;
20391;SDS011;10355;53.688;10.078;2023-11-18T15:46:48;4.07;;;2.20;;
20391;SDS011;10355;53.688;10.078;2023-11-18T15:49:32;3.47;;;2.17;;
20391;SDS011;10355;53.688;10.078;2023-11-18T15:52:15;2.50;;;1.95;;
20391;SDS011;10355;53.688;10.078;2023-11-18T15:54:59;2.30;;;1.90;;
20391;SDS011;10355;53.688;10.078;2023-11-18T15:57:44;2.83;;;1.88;;
20391;SDS011;10355;53.688;10.078;2023-11-18T16:00:28;2.97;;;2.05;;
20391;SDS011;10355;53.688;10.078;2023-11-18T16:03:11;4.28;;;2.40;;
20391;SDS011;10355;53.688;10.078;2023-11-18T16:05:55;2.90;;;2.05;;
20391;SDS011;10355;53.688;10.078;2023-11-18T16:08:38;4.50;;;2.33;;
20391;SDS011;10355;53.688;10.078;2023-11-18T16:11:21;3.63;;;2.00;;
20391;SDS011;10355;53.688;10.078;2023-11-18T16:14:06;3.22;;;1.83;;
20391;SDS011;10355;53.688;10.078;2023-11-18T16:16:49;3.10;;;2.00;;
20391;SDS011;10355;53.688;10.078;2023-11-18T16:19:33;3.70;;;1.98;;
20391;SDS011;10355;53.688;10.078;2023-11-18T16:22:17;2.95;;;1.98;;
20391;SDS011;10355;53.688;10.078;2023-11-18T16:25:00;3.42;;;1.90;;